Time;durP1;ratioP1;P1;durP2;ratioP2;P2;SDS_P1;SDS_P2;PMS_P1;PMS_P2;Temp;Humidity;BMP_temperature;BMP_pressure;BME280_temperature;BME280_humidity;BME280_pressure;Samples;Min_cycle;Max_cycle;Signal;HPM_P1;HPM_P2
2021/05/06 00:33:02;;;;;;;6.10;2.15;;;18.30;35.80;;;;;;5095537;28;20425;-65
2021/05/06 00:35:30;;;;;;;5.15;1.88;;;18.40;35.90;;;;;;5095561;28;20020;-66
2021/05/06 00:38:04;;;;;;;4.05;1.60;;;18.30;35.90;;;;;;5095326;28;20020;-66
2021/05/06 00:40:44;;;;;;;5.43;1.73;;;18.30;35.90;;;;;;5095377;28;20375;-67
2021/05/06 00:56:55;;;;;;;4.07;1.65;;;18.20;36.00;;;;;;5095450;28;20104;-64
2021/05/06 01:05:23;;;;;;;;;;;18.30;36.10;;;;;;5095396;28;20035;-66
2021/05/06 01:12:29;;;;;;;5.63;2.03;;;18.20;36.10;;;;;;5094348;28;20032;-66
2021/05/06 01:14:55;;;;;;;4.90;1.88;;;18.30;36.10;;;;;;5094536;28;20024;-65
2021/05/06 01:17:20;;;;;;;5.55;1.98;;;18.20;36.10;;;;;;5094630;28;20042;-65
2021/05/06 01:19:46;;;;;;;4.55;1.90;;;18.20;36.10;;;;;;5093253;28;20159;-65
2021/05/06 01:22:11;;;;;;;4.60;1.90;;;18.20;36.10;;;;;;5094306;28;20027;-66
2021/05/06 01:24:37;;;;;;;4.57;2.10;;;18.20;36.10;;;;;;5093944;28;20519;-66
2021/05/06 01:29:40;;;;;;;4.82;1.88;;;18.20;36.20;;;;;;5094110;28;20452;-66
2021/05/06 01:35:00;;;;;;;6.55;2.17;;;18.20;36.10;;;;;;5094162;28;20066;-65
2021/05/06 01:40:13;;;;;;;3.80;1.88;;;18.20;36.20;;;;;;5094208;28;20109;-65
2021/05/06 01:42:48;;;;;;;4.95;2.17;;;18.20;36.20;;;;;;5094064;28;20371;-65
2021/05/06 01:47:45;;;;;;;4.95;2.30;;;18.20;36.20;;;;;;5093805;28;20077;-65
2021/05/06 02:01:12;;;;;;;;;;;18.10;36.30;;;;;;5094295;28;20077;-65
2021/05/06 02:03:37;;;;;;;5.65;2.00;;;18.10;36.30;;;;;;5092994;28;19908;-65
2021/05/06 02:06:03;;;;;;;4.70;2.08;;;18.10;36.30;;;;;;5093649;28;20483;-66
2021/05/06 02:08:30;;;;;;;5.75;2.25;;;18.10;36.30;;;;;;5093631;28;20039;-66
2021/05/06 02:10:58;;;;;;;5.05;2.20;;;18.10;36.30;;;;;;5093709;28;20035;-66
2021/05/06 02:13:24;;;;;;;5.07;2.40;;;18.10;36.30;;;;;;5093257;28;20036;-65
2021/05/06 02:16:04;;;;;;;7.43;2.20;;;18.10;36.30;;;;;;5093491;28;20024;-65
2021/05/06 02:18:34;;;;;;;5.47;2.13;;;18.10;36.30;;;;;;5093426;28;20040;-65
2021/05/06 02:21:00;;;;;;;5.07;1.90;;;18.10;36.40;;;;;;5093401;28;20020;-65
2021/05/06 02:23:25;;;;;;;5.38;2.20;;;18.10;36.40;;;;;;5093048;28;20055;-65
2021/05/06 02:25:51;;;;;;;5.45;2.35;;;18.10;36.40;;;;;;5093349;28;20024;-65
2021/05/06 02:28:16;;;;;;;5.68;2.08;;;18.10;36.40;;;;;;5093200;28;20525;-66
2021/05/06 02:30:43;;;;;;;4.30;1.92;;;18.10;36.40;;;;;;5093507;28;20456;-65
2021/05/06 02:33:09;;;;;;;6.05;2.25;;;18.10;36.40;;;;;;5093217;28;20040;-65
2021/05/06 02:35:37;;;;;;;6.32;2.40;;;18.10;36.40;;;;;;5097106;28;20032;-66
2021/05/06 02:38:04;;;;;;;5.18;2.08;;;18.10;36.40;;;;;;5094005;28;20122;-65
2021/05/06 02:40:29;;;;;;;4.03;2.10;;;18.10;36.40;;;;;;5093611;28;20039;-65
2021/05/06 02:42:55;;;;;;;5.03;1.98;;;18.10;36.50;;;;;;5093723;28;20032;-65
2021/05/06 02:45:21;;;;;;;6.38;2.20;;;18.10;36.40;;;;;;5093546;28;20039;-65
2021/05/06 02:47:46;;;;;;;4.57;2.17;;;18.10;36.40;;;;;;5093194;28;20400;-65
2021/05/06 02:50:15;;;;;;;5.10;2.17;;;18.10;36.50;;;;;;5093567;28;20036;-65
2021/05/06 02:52:58;;;;;;;4.75;2.25;;;18.10;36.50;;;;;;5093632;28;20061;-65
2021/05/06 02:55:39;;;;;;;5.93;2.20;;;18.10;36.50;;;;;;5092155;28;20395;-65
2021/05/06 02:58:11;;;;;;;5.88;2.63;;;18.00;36.50;;;;;;5092094;28;20044;-65
2021/05/06 03:03:20;;;;;;;5.10;1.98;;;18.00;36.50;;;;;;5093297;28;20055;-65
2021/05/06 03:05:52;;;;;;;5.63;2.22;;;18.00;36.50;;;;;;5093232;28;20468;-66
2021/05/06 03:08:20;;;;;;;4.75;2.13;;;18.10;36.50;;;;;;5091903;28;20028;-65
2021/05/06 03:11:10;;;;;;;5.70;2.15;;;18.10;36.50;;;;;;5093507;28;20112;-65
2021/05/06 03:24:17;;;;;;;4.78;2.08;;;18.00;36.60;;;;;;5093510;28;20059;-66
2021/05/06 03:26:43;;;;;;;6.28;2.08;;;18.00;36.60;;;;;;5096628;28;20051;-65
2021/05/06 03:29:13;;;;;;;5.60;2.38;;;18.00;36.60;;;;;;5096623;28;20043;-65
2021/05/06 03:42:23;;;;;;;5.85;2.63;;;18.00;36.70;;;;;;5096680;28;20069;-65
2021/05/06 04:36:17;;;;;;;4.53;2.03;;;17.90;36.90;;;;;;5093683;28;20170;-65
2021/05/06 04:38:43;;;;;;;5.07;2.10;;;17.90;36.90;;;;;;5094617;28;20487;-65
2021/05/06 04:54:37;;;;;;;6.20;2.47;;;17.90;37.00;;;;;;5094429;28;20078;-65
2021/05/06 04:57:19;;;;;;;4.70;2.03;;;17.90;37.00;;;;;;5094293;28;20012;-65
2021/05/06 05:04:57;;;;;;;6.18;2.40;;;17.90;37.00;;;;;;5094263;28;20038;-65
2021/05/06 05:07:45;;;;;;;5.18;2.00;;;17.90;37.00;;;;;;5094008;28;20431;-65
2021/05/06 05:18:23;;;;;;;6.28;2.22;;;17.80;37.00;;;;;;5094438;28;19957;-65
2021/05/06 05:21:15;;;;;;;4.78;2.10;;;17.80;37.10;;;;;;5093789;28;20024;-66
2021/05/06 05:23:44;;;;;;;4.90;1.92;;;17.80;37.10;;;;;;5093629;28;20110;-66
2021/05/06 05:26:11;;;;;;;4.95;2.15;;;17.80;37.10;;;;;;5092409;28;20394;-65
2021/05/06 05:28:38;;;;;;;5.18;2.20;;;17.80;37.10;;;;;;5093595;28;20028;-65
2021/05/06 05:31:03;;;;;;;5.05;1.98;;;17.80;37.10;;;;;;5093667;28;20016;-66
2021/05/06 05:33:33;;;;;;;3.65;1.40;;;17.80;37.10;;;;;;5093492;28;20032;-66
2021/05/06 05:39:10;;;;;;;4.60;2.15;;;17.80;37.20;;;;;;5088783;28;20066;-65
2021/05/06 05:41:59;;;;;;;7.25;1.85;;;17.80;37.10;;;;;;5092254;28;20475;-66
2021/05/06 05:55:17;;;;;;;4.68;1.70;;;17.80;37.10;;;;;;5093347;28;20108;-65
2021/05/06 05:57:43;;;;;;;4.30;1.90;;;17.70;37.20;;;;;;5093528;28;20456;-66
2021/05/06 06:00:09;;;;;;;6.38;2.05;;;17.80;37.20;;;;;;5093292;28;20368;-67
2021/05/06 06:02:36;;;;;;;5.45;1.92;;;17.80;37.20;;;;;;5093484;28;20024;-66
2021/05/06 06:05:02;;;;;;;4.57;1.98;;;17.80;37.30;;;;;;5093139;28;20016;-66
2021/05/06 06:07:28;;;;;;;3.80;1.65;;;17.80;37.20;;;;;;5093054;28;20361;-66
2021/05/06 06:09:54;;;;;;;5.75;2.03;;;17.70;37.20;;;;;;5092967;28;20032;-66
2021/05/06 06:12:20;;;;;;;4.70;1.92;;;17.80;37.20;;;;;;5092983;28;20016;-65
2021/05/06 06:17:11;;;;;;;5.82;1.80;;;17.80;37.20;;;;;;5093411;28;20032;-67
2021/05/06 06:19:38;;;;;;;4.88;2.08;;;17.80;37.20;;;;;;5093730;28;20505;-63
2021/05/06 06:22:14;;;;;;;4.32;1.80;;;17.80;37.20;;;;;;5093463;28;20020;-64
2021/05/06 06:24:40;;;;;;;5.13;2.15;;;17.80;37.20;;;;;;5093091;28;20048;-64
2021/05/06 06:27:06;;;;;;;4.53;1.90;;;17.80;37.20;;;;;;5093152;28;20020;-66
2021/05/06 06:29:34;;;;;;;3.95;1.65;;;17.80;37.20;;;;;;5093346;28;20043;-66
2021/05/06 06:32:02;;;;;;;5.07;1.88;;;17.80;37.20;;;;;;5091802;28;20030;-66
2021/05/06 06:34:28;;;;;;;5.10;2.00;;;17.80;37.20;;;;;;5091733;28;20557;-66
2021/05/06 06:36:54;;;;;;;4.65;1.48;;;17.80;37.20;;;;;;5093242;28;20024;-65
2021/05/06 06:39:23;;;;;;;4.18;1.90;;;17.80;37.20;;;;;;5092013;28;20032;-65
2021/05/06 06:41:49;;;;;;;3.58;1.60;;;17.80;37.20;;;;;;5093619;28;20030;-66
2021/05/06 06:44:15;;;;;;;3.10;1.42;;;17.80;37.20;;;;;;5092586;28;20032;-65
2021/05/06 06:46:41;;;;;;;3.42;1.50;;;17.80;37.20;;;;;;5093472;28;20081;-66
2021/05/06 06:49:10;;;;;;;5.60;1.88;;;17.70;37.30;;;;;;5093191;28;20024;-66
2021/05/06 06:51:35;;;;;;;4.18;1.80;;;17.80;37.30;;;;;;5091351;28;20468;-65
2021/05/06 06:54:01;;;;;;;4.90;2.00;;;17.70;37.30;;;;;;5092724;28;20043;-66
2021/05/06 06:56:27;;;;;;;4.53;1.50;;;17.70;37.30;;;;;;5091208;28;20039;-65
2021/05/06 06:58:53;;;;;;;4.05;1.92;;;17.70;37.30;;;;;;5094892;28;20028;-65
2021/05/06 07:01:19;;;;;;;5.22;2.00;;;17.70;37.30;;;;;;5097142;28;20035;-66
2021/05/06 07:03:46;;;;;;;3.72;1.92;;;17.70;37.40;;;;;;5096630;28;20039;-65
2021/05/06 07:06:12;;;;;;;4.07;1.75;;;17.70;37.30;;;;;;5096576;28;20028;-65
2021/05/06 07:08:39;;;;;;;5.88;1.75;;;17.70;37.30;;;;;;5096553;28;20391;-63
2021/05/06 07:11:06;;;;;;;4.72;1.92;;;17.70;37.40;;;;;;5096685;28;20107;-67
2021/05/06 07:13:32;;;;;;;3.42;1.52;;;17.70;37.30;;;;;;5096156;28;20379;-66
2021/05/06 07:16:03;;;;;;;3.22;1.60;;;17.80;37.20;;;;;;5096135;28;20054;-67
2021/05/06 07:18:31;;;;;;;4.50;1.70;;;17.80;37.30;;;;;;5096148;28;20035;-65
2021/05/06 07:20:56;;;;;;;4.20;1.92;;;17.80;37.30;;;;;;5096117;28;20490;-65
2021/05/06 07:23:24;;;;;;;4.30;1.33;;;17.80;37.30;;;;;;5095681;28;20135;-67
2021/05/06 07:25:52;;;;;;;5.18;1.90;;;17.80;37.20;;;;;;5093288;28;20104;-68
2021/05/06 07:28:28;;;;;;;4.03;1.65;;;17.80;37.20;;;;;;5093785;28;20045;-65
2021/05/06 07:30:54;;;;;;;4.25;1.77;;;17.80;37.20;;;;;;5095612;28;20452;-67
2021/05/06 07:33:19;;;;;;;5.25;1.85;;;17.80;37.30;;;;;;5094660;28;20060;-66
2021/05/06 07:35:45;;;;;;;7.10;2.22;;;17.80;37.30;;;;;;5095198;28;20492;-65
2021/05/06 07:38:11;;;;;;;2.75;1.42;;;17.80;37.40;;;;;;5095096;28;20448;-66
2021/05/06 07:40:39;;;;;;;4.30;1.48;;;17.80;37.30;;;;;;5095097;28;20141;-64
2021/05/06 07:43:05;;;;;;;4.10;1.67;;;17.80;37.30;;;;;;5094901;28;20028;-63
2021/05/06 07:45:31;;;;;;;3.88;1.52;;;17.90;37.30;;;;;;5095251;28;20421;-65
2021/05/06 07:47:57;;;;;;;6.18;2.10;;;17.80;37.30;;;;;;5094471;28;20035;-67
2021/05/06 07:50:23;;;;;;;4.00;1.60;;;17.90;37.30;;;;;;5095444;28;20031;-66
2021/05/06 07:52:51;;;;;;;4.15;1.67;;;17.80;37.30;;;;;;5094866;28;20036;-64
2021/05/06 07:55:17;;;;;;;5.05;1.50;;;17.80;37.40;;;;;;5094436;28;20111;-64
2021/05/06 07:57:43;;;;;;;4.70;1.75;;;17.90;37.40;;;;;;5094262;28;20504;-65
2021/05/06 08:00:15;;;;;;;5.20;1.63;;;17.90;37.40;;;;;;5094896;28;20028;-67
2021/05/06 08:02:42;;;;;;;3.60;1.50;;;17.90;37.30;;;;;;5094695;28;20024;-67
2021/05/06 08:05:08;;;;;;;6.55;1.65;;;17.90;37.30;;;;;;5094187;28;20427;-66
2021/05/06 08:07:34;;;;;;;4.25;1.38;;;17.90;37.30;;;;;;5091917;28;20541;-68
2021/05/06 08:10:00;;;;;;;4.05;1.63;;;18.00;37.30;;;;;;5093555;28;20024;-67
2021/05/06 08:12:26;;;;;;;3.67;1.50;;;18.00;37.30;;;;;;5081647;28;20059;-69
2021/05/06 08:14:53;;;;;;;4.65;1.65;;;18.00;37.30;;;;;;5073498;28;20044;-68
2021/05/06 08:17:19;;;;;;;3.33;1.38;;;18.00;37.40;;;;;;5091922;28;20052;-68
2021/05/06 08:19:46;;;;;;;3.92;1.50;;;18.00;37.50;;;;;;5093221;28;20068;-69
2021/05/06 08:22:12;;;;;;;3.80;1.70;;;18.10;37.30;;;;;;5094472;28;20376;-69
2021/05/06 08:24:38;;;;;;;4.35;1.50;;;18.10;37.20;;;;;;5094299;28;20066;-68
2021/05/06 08:27:04;;;;;;;4.10;1.70;;;18.10;37.20;;;;;;5093159;28;20032;-69
2021/05/06 08:29:29;;;;;;;4.50;1.60;;;18.10;37.20;;;;;;5092545;28;20028;-68
2021/05/06 08:31:55;;;;;;;3.90;1.50;;;18.20;37.10;;;;;;5094545;28;20092;-66
2021/05/06 08:34:21;;;;;;;3.03;1.33;;;18.30;37.10;;;;;;5094442;28;20066;-66
2021/05/06 08:36:46;;;;;;;3.08;1.52;;;18.40;37.10;;;;;;5093834;28;20488;-68
2021/05/06 08:39:12;;;;;;;4.13;1.48;;;18.40;37.10;;;;;;5094163;28;20157;-65
2021/05/06 08:41:40;;;;;;;5.05;1.60;;;18.50;37.00;;;;;;5093707;28;20544;-65
2021/05/06 08:44:06;;;;;;;4.85;1.45;;;18.60;36.90;;;;;;5093217;28;20089;-67
2021/05/06 08:46:36;;;;;;;3.65;1.30;;;18.60;36.90;;;;;;5094001;28;20027;-68
2021/05/06 08:49:03;;;;;;;3.75;1.80;;;18.70;36.90;;;;;;5092972;28;20054;-66
2021/05/06 08:51:29;;;;;;;3.92;1.40;;;18.70;36.90;;;;;;5093208;28;20103;-70
2021/05/06 08:53:55;;;;;;;5.85;1.77;;;18.70;36.90;;;;;;5092424;28;20040;-68
2021/05/06 08:56:21;;;;;;;3.78;1.40;;;18.90;36.70;;;;;;5093553;28;20410;-68
2021/05/06 08:58:46;;;;;;;3.45;1.70;;;18.90;36.70;;;;;;5092838;28;20495;-68
2021/05/06 09:01:14;;;;;;;3.45;1.55;;;19.00;36.70;;;;;;5093517;28;20054;-69
2021/05/06 09:03:39;;;;;;;4.13;1.30;;;18.90;36.80;;;;;;5092572;28;20105;-69
2021/05/06 09:06:18;;;;;;;5.35;1.95;;;19.00;36.70;;;;;;5093661;28;20032;-68
2021/05/06 09:08:52;;;;;;;6.25;1.70;;;19.00;36.60;;;;;;5093143;28;20034;-68
2021/05/06 09:11:38;;;;;;;5.20;1.42;;;19.10;36.70;;;;;;5093078;28;20119;-66
2021/05/06 09:14:08;;;;;;;3.50;1.20;;;19.10;36.60;;;;;;5093149;28;20038;-67
2021/05/06 09:16:39;;;;;;;4.38;1.50;;;19.20;36.60;;;;;;5093329;28;20089;-65
2021/05/06 09:19:06;;;;;;;3.75;1.55;;;19.30;36.60;;;;;;5091646;28;20078;-65
2021/05/06 09:21:34;;;;;;;4.85;1.95;;;19.30;36.50;;;;;;5092506;28;20062;-68
2021/05/06 09:24:23;;;;;;;3.00;1.30;;;19.50;36.40;;;;;;5091257;28;20048;-66
2021/05/06 09:26:58;;;;;;;3.80;1.80;;;19.50;36.30;;;;;;5093148;28;20111;-66
2021/05/06 09:29:41;;;;;;;2.97;1.40;;;19.50;36.30;;;;;;5091035;28;20028;-67
2021/05/06 09:32:20;;;;;;;3.60;1.30;;;19.50;36.40;;;;;;5092578;28;20463;-67
2021/05/06 09:34:47;;;;;;;3.40;1.58;;;19.50;36.40;;;;;;5092496;28;20040;-67
2021/05/06 09:37:35;;;;;;;3.05;1.33;;;19.50;36.40;;;;;;5092997;28;20020;-67
2021/05/06 09:40:03;;;;;;;2.83;1.40;;;19.50;36.40;;;;;;5093397;28;20028;-69
2021/05/06 09:42:40;;;;;;;5.10;1.65;;;19.60;36.50;;;;;;5093126;28;20116;-66
2021/05/06 09:45:07;;;;;;;3.10;1.50;;;19.60;36.50;;;;;;5093648;28;20025;-66
2021/05/06 09:47:33;;;;;;;4.15;1.35;;;19.60;36.40;;;;;;5092224;28;20028;-66
2021/05/06 09:49:59;;;;;;;3.05;1.52;;;19.70;36.50;;;;;;5093335;28;20028;-66
2021/05/06 09:52:24;;;;;;;2.75;1.17;;;19.70;36.40;;;;;;5094222;28;20028;-67
2021/05/06 09:54:52;;;;;;;2.67;1.20;;;19.80;36.40;;;;;;5094588;28;20101;-67
2021/05/06 09:57:29;;;;;;;4.05;1.40;;;19.80;36.30;;;;;;5093946;28;20414;-67
2021/05/06 10:00:14;;;;;;;2.50;1.20;;;19.80;36.30;;;;;;5093695;28;20087;-67
2021/05/06 10:02:40;;;;;;;3.67;1.40;;;19.80;36.30;;;;;;5093682;28;20024;-67
2021/05/06 10:05:11;;;;;;;3.10;1.48;;;19.90;36.30;;;;;;5094018;28;20032;-67
2021/05/06 10:07:36;;;;;;;3.72;1.17;;;19.90;36.30;;;;;;5093515;28;20012;-67
2021/05/06 10:10:02;;;;;;;4.78;1.35;;;19.90;36.30;;;;;;5093419;28;20028;-67
2021/05/06 10:12:33;;;;;;;2.63;1.50;;;20.00;36.30;;;;;;5093502;28;20031;-67
2021/05/06 10:15:00;;;;;;;4.15;1.35;;;20.00;36.30;;;;;;5093381;28;20040;-67
2021/05/06 10:17:27;;;;;;;4.18;1.60;;;20.00;36.30;;;;;;5093651;28;20023;-67
2021/05/06 10:19:53;;;;;;;3.95;1.38;;;20.00;36.20;;;;;;5093404;28;20407;-67
2021/05/06 10:22:25;;;;;;;2.88;1.30;;;20.00;36.20;;;;;;5092112;28;20028;-68
2021/05/06 10:24:51;;;;;;;3.35;1.40;;;20.10;36.10;;;;;;5093412;28;20499;-67
2021/05/06 10:27:20;;;;;;;3.95;1.50;;;20.20;36.00;;;;;;5092222;28;20676;-67
2021/05/06 10:29:47;;;;;;;3.17;1.23;;;20.30;35.90;;;;;;5092823;28;20020;-67
2021/05/06 10:32:15;;;;;;;2.80;1.40;;;20.30;35.80;;;;;;5091566;28;20111;-68
2021/05/06 10:34:47;;;;;;;2.22;1.17;;;20.30;35.90;;;;;;5091767;28;20039;-70
2021/05/06 10:37:13;;;;;;;6.55;1.42;;;20.40;35.80;;;;;;5092314;28;20058;-69
2021/05/06 10:39:45;;;;;;;3.25;1.40;;;20.40;35.80;;;;;;5092242;28;20056;-69
2021/05/06 10:42:28;;;;;;;3.35;1.48;;;20.50;35.70;;;;;;5093177;28;20024;-70
2021/05/06 10:45:14;;;;;;;2.80;1.50;;;20.50;35.70;;;;;;5093190;28;20020;-69
2021/05/06 10:47:43;;;;;;;3.90;1.63;;;20.50;35.80;;;;;;5082126;28;20073;-68
2021/05/06 10:50:13;;;;;;;3.08;1.10;;;20.50;35.80;;;;;;5092219;28;20429;-68
2021/05/06 10:52:43;;;;;;;4.38;1.42;;;20.50;35.80;;;;;;5093534;28;20475;-69
2021/05/06 10:55:11;;;;;;;3.47;1.50;;;20.50;35.90;;;;;;5093265;28;20487;-69
2021/05/06 10:57:37;;;;;;;6.05;1.92;;;20.50;35.90;;;;;;5098756;28;20031;-68
2021/05/06 11:00:15;;;;;;;3.75;1.50;;;20.50;35.90;;;;;;5092992;28;20024;-69
2021/05/06 11:02:42;;;;;;;2.45;1.25;;;20.50;35.90;;;;;;5090187;28;20175;-69
2021/05/06 11:05:11;;;;;;;2.95;1.25;;;20.50;35.90;;;;;;5090648;28;20016;-66
2021/05/06 11:07:37;;;;;;;3.20;1.40;;;20.50;35.90;;;;;;5092322;28;20032;-67
2021/05/06 11:10:04;;;;;;;3.40;1.48;;;20.50;35.90;;;;;;5091713;28;20028;-68
2021/05/06 11:12:40;;;;;;;3.35;1.27;;;20.60;35.80;;;;;;5091779;28;20039;-67
2021/05/06 11:15:08;;;;;;;4.63;1.23;;;20.60;35.90;;;;;;5091773;28;20036;-67
2021/05/06 11:17:39;;;;;;;2.50;1.00;;;20.60;35.80;;;;;;5092051;28;20021;-69
2021/05/06 11:20:14;;;;;;;4.80;1.40;;;20.70;35.70;;;;;;5092434;28;20028;-68
2021/05/06 11:22:42;;;;;;;3.63;1.42;;;20.80;35.60;;;;;;5091926;28;20067;-68
2021/05/06 11:25:37;;;;;;;3.67;1.40;;;20.90;35.50;;;;;;5090930;28;20043;-68
2021/05/06 11:28:27;;;;;;;2.92;1.25;;;21.00;35.40;;;;;;5090828;28;20024;-69
2021/05/06 11:30:54;;;;;;;2.33;1.17;;;21.00;35.40;;;;;;5090945;28;20043;-70
2021/05/06 11:33:19;;;;;;;2.40;1.13;;;21.00;35.30;;;;;;5090529;28;20026;-68
2021/05/06 11:36:07;;;;;;;3.30;1.40;;;21.10;35.30;;;;;;5092384;28;20052;-69
2021/05/06 11:38:42;;;;;;;2.05;1.10;;;21.20;35.20;;;;;;5091002;28;20040;-68
2021/05/06 11:41:12;;;;;;;2.90;1.27;;;21.20;35.20;;;;;;5092239;28;20112;-70
2021/05/06 11:43:45;;;;;;;4.88;2.33;;;21.20;35.20;;;;;;5093173;28;20475;-72
2021/05/06 11:46:19;;;;;;;4.95;1.33;;;21.30;35.10;;;;;;5094947;28;20044;-70
2021/05/06 11:48:58;;;;;;;3.25;1.80;;;21.30;35.10;;;;;;5095985;28;20028;-68
2021/05/06 11:51:35;;;;;;;2.45;1.08;;;21.30;35.10;;;;;;5096851;28;20024;-68
2021/05/06 11:54:12;;;;;;;2.50;0.88;;;21.30;35.20;;;;;;5096423;28;20031;-68
2021/05/06 11:56:40;;;;;;;4.22;1.25;;;21.30;35.20;;;;;;5096288;28;20450;-69
2021/05/06 11:59:14;;;;;;;3.03;1.20;;;21.20;35.30;;;;;;5096127;28;20023;-68
2021/05/06 12:01:40;;;;;;;3.50;1.20;;;21.30;35.30;;;;;;5095880;28;20028;-68
2021/05/06 12:04:05;;;;;;;4.32;1.38;;;21.30;35.30;;;;;;5095808;28;20027;-70
2021/05/06 12:06:32;;;;;;;2.55;1.08;;;21.30;35.20;;;;;;5096189;28;20030;-68
2021/05/06 12:08:58;;;;;;;2.50;1.10;;;21.40;35.10;;;;;;5096040;28;20027;-69
2021/05/06 12:11:35;;;;;;;2.10;1.00;;;21.40;35.10;;;;;;5097165;28;20467;-68
2021/05/06 12:14:01;;;;;;;3.42;1.15;;;21.40;35.10;;;;;;5100103;28;20040;-70
2021/05/06 12:16:27;;;;;;;3.88;1.35;;;21.40;35.10;;;;;;5106197;28;20078;-69
2021/05/06 12:19:02;;;;;;;2.40;1.15;;;21.50;35.10;;;;;;5106376;28;20032;-71
2021/05/06 12:21:35;;;;;;;5.43;1.10;;;21.50;35.00;;;;;;5105730;28;20044;-70
2021/05/06 12:24:01;;;;;;;2.55;1.10;;;21.50;35.00;;;;;;5104465;28;20055;-69
2021/05/06 12:26:28;;;;;;;2.28;1.08;;;21.50;35.00;;;;;;5101003;28;20107;-69
2021/05/06 12:28:55;;;;;;;2.20;1.00;;;21.50;35.00;;;;;;5101508;28;20051;-69
2021/05/06 12:31:20;;;;;;;2.72;1.10;;;21.50;35.10;;;;;;5097311;28;20414;-69
2021/05/06 12:33:46;;;;;;;2.13;1.10;;;21.40;35.10;;;;;;5095441;28;20089;-69
2021/05/06 12:36:13;;;;;;;2.50;1.05;;;21.50;35.10;;;;;;5095809;28;20045;-69
2021/05/06 12:38:40;;;;;;;3.22;1.00;;;21.40;35.10;;;;;;5095570;28;20027;-69
2021/05/06 12:41:07;;;;;;;4.90;1.20;;;21.40;35.20;;;;;;5095697;28;20099;-68
2021/05/06 12:43:34;;;;;;;2.63;1.10;;;21.40;35.10;;;;;;5095433;28;20020;-68
2021/05/06 12:46:10;;;;;;;2.95;1.10;;;21.40;35.20;;;;;;5094985;28;20024;-69
2021/05/06 12:48:39;;;;;;;4.20;0.82;;;21.40;35.20;;;;;;5095064;28;20031;-69
2021/05/06 12:51:05;;;;;;;2.60;1.10;;;21.40;35.20;;;;;;5095500;28;20107;-68
2021/05/06 12:53:31;;;;;;;3.10;1.30;;;21.40;35.20;;;;;;5095203;28;20038;-69
2021/05/06 12:55:57;;;;;;;2.50;1.00;;;21.40;35.20;;;;;;5094259;28;20475;-69
2021/05/06 12:58:27;;;;;;;2.30;0.95;;;21.50;35.10;;;;;;5094858;28;20070;-68
2021/05/06 13:00:57;;;;;;;1.77;1.00;;;21.50;35.10;;;;;;5095251;28;20102;-69
2021/05/06 13:03:33;;;;;;;1.90;0.90;;;21.50;34.90;;;;;;5095002;28;20032;-69
2021/05/06 13:06:04;;;;;;;3.00;1.00;;;21.60;34.90;;;;;;5096044;28;20412;-67
2021/05/06 13:08:39;;;;;;;2.00;1.00;;;21.60;34.90;;;;;;5094528;28;20031;-67
2021/05/06 13:11:10;;;;;;;1.58;0.80;;;21.60;34.70;;;;;;5073843;28;20430;-65
2021/05/06 13:13:47;;;;;;;2.13;1.00;;;21.60;34.80;;;;;;5073853;28;20487;-64
2021/05/06 13:16:16;;;;;;;3.50;1.10;;;21.70;34.80;;;;;;5073778;28;20024;-67
2021/05/06 13:18:57;;;;;;;3.40;1.00;;;21.60;34.70;;;;;;5073812;28;20361;-69
2021/05/06 13:21:23;;;;;;;5.07;1.10;;;21.70;34.70;;;;;;5088312;28;20024;-67
2021/05/06 13:23:52;;;;;;;1.90;0.80;;;21.80;34.70;;;;;;5092747;28;20415;-69
2021/05/06 13:26:30;;;;;;;2.65;1.20;;;22.00;34.40;;;;;;5093691;28;20028;-66
2021/05/06 13:29:00;;;;;;;2.70;1.10;;;21.90;34.30;;;;;;5093766;28;20024;-69
2021/05/06 13:31:35;;;;;;;2.58;1.20;;;22.00;34.40;;;;;;5093163;28;20023;-69
2021/05/06 13:34:14;;;;;;;3.38;1.10;;;22.00;34.40;;;;;;5092813;28;20505;-70
2021/05/06 13:36:43;;;;;;;2.20;0.85;;;22.00;34.40;;;;;;5093554;28;20051;-68
2021/05/06 13:39:13;;;;;;;1.67;0.77;;;22.00;34.50;;;;;;5093647;28;20024;-68
2021/05/06 13:41:47;;;;;;;2.58;1.10;;;21.90;34.60;;;;;;5092183;28;20019;-67
2021/05/06 13:44:14;;;;;;;3.45;1.20;;;22.00;34.60;;;;;;5092448;28;20036;-67
2021/05/06 13:46:55;;;;;;;3.03;1.30;;;22.00;34.40;;;;;;5092886;28;20066;-70
2021/05/06 13:49:23;;;;;;;1.65;0.85;;;22.00;34.50;;;;;;5092033;28;20040;-68
2021/05/06 13:51:51;;;;;;;3.20;1.00;;;22.00;34.40;;;;;;5084967;28;20034;-70
2021/05/06 13:54:18;;;;;;;3.53;1.00;;;22.00;34.50;;;;;;5096641;28;20043;-68
2021/05/06 13:56:43;;;;;;;2.30;0.80;;;21.90;34.60;;;;;;5113197;28;20072;-68
2021/05/06 13:59:09;;;;;;;3.20;1.10;;;21.90;34.60;;;;;;5113633;28;20106;-71
2021/05/06 14:01:35;;;;;;;2.45;0.85;;;21.90;34.70;;;;;;5112639;28;20111;-68
2021/05/06 14:04:00;;;;;;;2.70;1.00;;;21.90;34.60;;;;;;5112856;28;20054;-69
2021/05/06 14:06:26;;;;;;;2.40;1.10;;;21.90;34.60;;;;;;5103073;28;20024;-67
2021/05/06 14:08:52;;;;;;;2.33;0.95;;;21.90;34.50;;;;;;5092160;28;20431;-69
2021/05/06 14:11:17;;;;;;;4.30;1.20;;;21.90;34.60;;;;;;5092020;28;20030;-69
2021/05/06 14:13:43;;;;;;;3.22;1.20;;;21.80;34.60;;;;;;5092577;28;20392;-69
2021/05/06 14:16:09;;;;;;;2.80;1.10;;;21.80;34.70;;;;;;5092172;28;20089;-67
2021/05/06 14:18:34;;;;;;;2.22;1.13;;;21.70;34.70;;;;;;5092762;28;20436;-69
2021/05/06 14:21:02;;;;;;;2.95;1.23;;;21.70;34.80;;;;;;5092398;28;20505;-69
2021/05/06 14:23:37;;;;;;;2.83;1.38;;;21.70;34.80;;;;;;5091668;28;20089;-68
2021/05/06 14:26:02;;;;;;;2.92;1.25;;;21.70;34.80;;;;;;5091961;28;20020;-70
2021/05/06 14:28:28;;;;;;;2.58;1.13;;;21.70;34.80;;;;;;5092165;28;20132;-69
2021/05/06 14:30:53;;;;;;;2.53;1.08;;;21.70;34.80;;;;;;5092276;28;20494;-69
2021/05/06 14:33:19;;;;;;;3.20;1.08;;;21.70;34.70;;;;;;5093659;28;20026;-68
2021/05/06 14:35:44;;;;;;;3.30;1.30;;;21.70;34.70;;;;;;5096599;28;20081;-69
2021/05/06 14:38:10;;;;;;;4.47;1.92;;;21.70;34.70;;;;;;5093261;28;20034;-68
2021/05/06 14:40:40;;;;;;;2.08;0.93;;;21.70;34.70;;;;;;5092962;28;20475;-68
2021/05/06 14:43:06;;;;;;;3.17;1.05;;;21.70;34.70;;;;;;5091805;28;20035;-69
2021/05/06 14:45:33;;;;;;;3.25;1.00;;;21.70;34.60;;;;;;5092731;28;20429;-69
2021/05/06 14:47:59;;;;;;;1.75;0.93;;;21.70;34.60;;;;;;5091558;28;20111;-69
2021/05/06 14:50:24;;;;;;;3.22;1.23;;;21.80;34.60;;;;;;5092179;28;20052;-66
2021/05/06 14:52:53;;;;;;;1.63;0.90;;;21.70;34.60;;;;;;5090767;28;20020;-69
2021/05/06 14:55:20;;;;;;;2.63;1.20;;;21.70;34.50;;;;;;5092234;28;20036;-67
2021/05/06 14:57:45;;;;;;;4.20;1.10;;;21.80;34.50;;;;;;5091599;28;20028;-67
2021/05/06 15:00:11;;;;;;;1.92;1.02;;;21.80;34.50;;;;;;5092273;28;20078;-67
2021/05/06 15:02:37;;;;;;;1.75;0.90;;;21.80;34.50;;;;;;5091463;28;20475;-68
2021/05/06 15:05:04;;;;;;;2.47;1.00;;;21.80;34.50;;;;;;5092430;28;20039;-66
2021/05/06 15:07:29;;;;;;;2.55;1.17;;;21.80;34.50;;;;;;5091950;28;20013;-66
2021/05/06 15:09:55;;;;;;;3.15;1.02;;;21.80;34.50;;;;;;5091709;28;20042;-67
2021/05/06 15:12:20;;;;;;;2.10;1.05;;;21.80;34.40;;;;;;5091724;28;20024;-66
2021/05/06 15:14:46;;;;;;;2.92;1.10;;;21.90;34.40;;;;;;5093185;28;20036;-67
2021/05/06 15:17:11;;;;;;;2.47;1.15;;;21.80;34.40;;;;;;5093019;28;20142;-67
2021/05/06 15:19:37;;;;;;;3.30;1.40;;;21.80;34.40;;;;;;5094712;28;20357;-69
2021/05/06 15:22:02;;;;;;;3.60;1.13;;;21.80;34.30;;;;;;5096686;28;20031;-68
2021/05/06 15:24:28;;;;;;;2.33;1.00;;;21.90;34.10;;;;;;5095862;28;20130;-68
2021/05/06 15:26:54;;;;;;;2.67;1.17;;;21.90;34.40;;;;;;5096585;28;20067;-66
2021/05/06 15:29:19;;;;;;;2.08;1.20;;;21.80;34.40;;;;;;5099425;28;20478;-67
2021/05/06 15:31:45;;;;;;;3.05;1.00;;;21.80;34.50;;;;;;5096781;28;20056;-66
2021/05/06 15:34:10;;;;;;;2.90;1.23;;;21.80;34.50;;;;;;5096875;28;20036;-67
2021/05/06 15:36:36;;;;;;;2.53;1.20;;;21.70;34.40;;;;;;5096772;28;20099;-68
2021/05/06 15:39:05;;;;;;;3.17;1.25;;;21.70;34.50;;;;;;5096607;28;20062;-68
2021/05/06 15:41:30;;;;;;;2.63;1.20;;;21.70;34.50;;;;;;5096576;28;20024;-68
2021/05/06 15:43:57;;;;;;;3.10;1.10;;;21.70;34.50;;;;;;5096495;28;20034;-69
2021/05/06 15:46:23;;;;;;;1.85;1.00;;;21.60;34.60;;;;;;5096461;28;20082;-69
2021/05/06 15:48:49;;;;;;;2.17;1.02;;;21.60;34.50;;;;;;5095894;28;20459;-68
2021/05/06 15:51:16;;;;;;;2.25;1.00;;;21.60;34.50;;;;;;5096212;28;20032;-68
2021/05/06 15:53:45;;;;;;;2.78;1.05;;;21.50;34.60;;;;;;5095926;28;20485;-68
2021/05/06 15:56:12;;;;;;;2.88;1.13;;;21.50;34.50;;;;;;5096621;28;20031;-66
2021/05/06 15:58:39;;;;;;;3.20;1.10;;;21.50;34.50;;;;;;5096346;28;20381;-68
2021/05/06 16:01:05;;;;;;;2.65;0.98;;;21.50;34.60;;;;;;5096356;28;20026;-69
2021/05/06 16:03:44;;;;;;;1.80;0.98;;;21.50;34.60;;;;;;5097307;28;20055;-69
2021/05/06 16:06:10;;;;;;;3.67;1.40;;;21.50;34.60;;;;;;5096125;28;20089;-67
2021/05/06 16:08:35;;;;;;;2.33;1.00;;;21.40;34.60;;;;;;5096891;28;20032;-67
2021/05/06 16:11:01;;;;;;;3.25;1.10;;;21.30;34.70;;;;;;5095960;28;20516;-68
2021/05/06 16:13:26;;;;;;;1.83;0.80;;;21.30;34.60;;;;;;5095601;28;20107;-68